sensor_id;sensor_type;location;lat;lon;timestamp;temperature;humidity
18085;DHT22;9169;44.492;11.372;2023-06-14T00:01:23;23.90;59.60
18085;DHT22;9169;44.492;11.372;2023-06-14T00:03:53;23.90;59.30
18085;DHT22;9169;44.492;11.372;2023-06-14T00:06:23;23.80;59.10
18085;DHT22;9169;44.492;11.372;2023-06-14T00:08:52;23.80;58.90
18085;DHT22;9169;44.492;11.372;2023-06-14T00:11:21;23.80;59.00
18085;DHT22;9169;44.492;11.372;2023-06-14T00:13:50;23.70;58.90
18085;DHT22;9169;44.492;11.372;2023-06-14T00:16:20;23.70;58.80
18085;DHT22;9169;44.492;11.372;2023-06-14T00:18:50;23.60;58.80
18085;DHT22;9169;44.492;11.372;2023-06-14T00:21:21;23.60;58.90
18085;DHT22;9169;44.492;11.372;2023-06-14T00:23:50;23.60;59.00
18085;DHT22;9169;44.492;11.372;2023-06-14T00:26:19;23.50;59.00
18085;DHT22;9169;44.492;11.372;2023-06-14T00:28:48;23.40;59.00
18085;DHT22;9169;44.492;11.372;2023-06-14T00:31:16;23.50;59.10
18085;DHT22;9169;44.492;11.372;2023-06-14T00:33:46;23.50;59.40
18085;DHT22;9169;44.492;11.372;2023-06-14T00:36:15;23.40;59.50
18085;DHT22;9169;44.492;11.372;2023-06-14T00:38:44;23.40;59.60
18085;DHT22;9169;44.492;11.372;2023-06-14T00:41:13;23.30;59.50
18085;DHT22;9169;44.492;11.372;2023-06-14T00:43:42;23.30;59.60
18085;DHT22;9169;44.492;11.372;2023-06-14T00:46:11;23.30;59.60
18085;DHT22;9169;44.492;11.372;2023-06-14T00:48:40;23.20;59.60
18085;DHT22;9169;44.492;11.372;2023-06-14T00:51:10;23.20;59.60
18085;DHT22;9169;44.492;11.372;2023-06-14T00:53:38;23.30;60.30
18085;DHT22;9169;44.492;11.372;2023-06-14T00:56:08;23.20;59.80
18085;DHT22;9169;44.492;11.372;2023-06-14T00:58:37;23.20;59.60
18085;DHT22;9169;44.492;11.372;2023-06-14T01:01:05;23.20;59.50
18085;DHT22;9169;44.492;11.372;2023-06-14T01:03:34;23.20;59.60
18085;DHT22;9169;44.492;11.372;2023-06-14T01:06:15;23.20;59.60
18085;DHT22;9169;44.492;11.372;2023-06-14T01:09:03;23.20;59.60
18085;DHT22;9169;44.492;11.372;2023-06-14T01:11:41;23.20;59.50
18085;DHT22;9169;44.492;11.372;2023-06-14T01:14:14;23.20;59.60
18085;DHT22;9169;44.492;11.372;2023-06-14T01:16:46;23.20;59.50
18085;DHT22;9169;44.492;11.372;2023-06-14T01:19:22;23.20;59.50
18085;DHT22;9169;44.492;11.372;2023-06-14T01:21:55;23.20;59.50
18085;DHT22;9169;44.492;11.372;2023-06-14T01:24:25;23.20;59.50
18085;DHT22;9169;44.492;11.372;2023-06-14T01:27:00;23.20;59.30
18085;DHT22;9169;44.492;11.372;2023-06-14T01:29:29;23.20;59.30
18085;DHT22;9169;44.492;11.372;2023-06-14T01:32:01;23.20;59.20
18085;DHT22;9169;44.492;11.372;2023-06-14T01:34:31;23.20;59.30
18085;DHT22;9169;44.492;11.372;2023-06-14T01:37:01;23.20;59.20
18085;DHT22;9169;44.492;11.372;2023-06-14T01:39:33;23.20;59.20
18085;DHT22;9169;44.492;11.372;2023-06-14T01:42:03;23.20;59.30
18085;DHT22;9169;44.492;11.372;2023-06-14T01:44:34;23.20;59.20
18085;DHT22;9169;44.492;11.372;2023-06-14T01:47:03;23.10;59.20
18085;DHT22;9169;44.492;11.372;2023-06-14T01:49:33;23.10;59.80
18085;DHT22;9169;44.492;11.372;2023-06-14T01:52:02;23.10;59.50
18085;DHT22;9169;44.492;11.372;2023-06-14T01:54:34;23.10;59.30
18085;DHT22;9169;44.492;11.372;2023-06-14T01:57:05;23.10;59.30
18085;DHT22;9169;44.492;11.372;2023-06-14T01:59:34;23.10;59.50
18085;DHT22;9169;44.492;11.372;2023-06-14T02:02:04;23.10;59.50
18085;DHT22;9169;44.492;11.372;2023-06-14T02:04:33;23.10;59.30
18085;DHT22;9169;44.492;11.372;2023-06-14T02:07:01;23.00;59.20
18085;DHT22;9169;44.492;11.372;2023-06-14T02:09:30;23.00;59.10
18085;DHT22;9169;44.492;11.372;2023-06-14T02:12:00;23.00;59.20
18085;DHT22;9169;44.492;11.372;2023-06-14T02:14:29;23.00;59.20
18085;DHT22;9169;44.492;11.372;2023-06-14T02:16:58;23.00;59.10
18085;DHT22;9169;44.492;11.372;2023-06-14T02:19:28;23.00;59.10
18085;DHT22;9169;44.492;11.372;2023-06-14T02:21:57;23.00;59.20
18085;DHT22;9169;44.492;11.372;2023-06-14T02:24:28;22.90;59.20
18085;DHT22;9169;44.492;11.372;2023-06-14T02:27:00;22.90;59.20
18085;DHT22;9169;44.492;11.372;2023-06-14T02:29:28;22.90;59.20
18085;DHT22;9169;44.492;11.372;2023-06-14T02:31:57;22.90;59.20
18085;DHT22;9169;44.492;11.372;2023-06-14T02:34:26;22.90;59.50
18085;DHT22;9169;44.492;11.372;2023-06-14T02:36:55;22.80;59.50
18085;DHT22;9169;44.492;11.372;2023-06-14T02:39:24;22.80;59.70
18085;DHT22;9169;44.492;11.372;2023-06-14T02:41:53;22.80;59.70
18085;DHT22;9169;44.492;11.372;2023-06-14T02:44:25;22.80;59.60
18085;DHT22;9169;44.492;11.372;2023-06-14T02:46:54;22.80;59.80
18085;DHT22;9169;44.492;11.372;2023-06-14T02:49:23;22.80;59.80
18085;DHT22;9169;44.492;11.372;2023-06-14T02:51:52;22.80;59.80
18085;DHT22;9169;44.492;11.372;2023-06-14T02:54:22;22.80;60.00
18085;DHT22;9169;44.492;11.372;2023-06-14T02:56:51;22.80;60.00
18085;DHT22;9169;44.492;11.372;2023-06-14T02:59:20;22.70;59.90
18085;DHT22;9169;44.492;11.372;2023-06-14T03:01:56;22.70;60.00
18085;DHT22;9169;44.492;11.372;2023-06-14T03:04:24;22.80;60.30
18085;DHT22;9169;44.492;11.372;2023-06-14T03:06:54;22.80;60.20
18085;DHT22;9169;44.492;11.372;2023-06-14T03:09:23;22.80;60.20
18085;DHT22;9169;44.492;11.372;2023-06-14T03:11:52;22.80;60.20
18085;DHT22;9169;44.492;11.372;2023-06-14T03:14:22;22.80;60.30
18085;DHT22;9169;44.492;11.372;2023-06-14T03:16:53;22.80;60.00
18085;DHT22;9169;44.492;11.372;2023-06-14T03:19:26;22.80;60.00
18085;DHT22;9169;44.492;11.372;2023-06-14T03:21:57;22.80;60.10
18085;DHT22;9169;44.492;11.372;2023-06-14T03:24:28;22.80;60.20
18085;DHT22;9169;44.492;11.372;2023-06-14T03:26:59;22.70;60.20
18085;DHT22;9169;44.492;11.372;2023-06-14T03:29:29;22.80;60.20
18085;DHT22;9169;44.492;11.372;2023-06-14T03:32:00;22.80;60.10
18085;DHT22;9169;44.492;11.372;2023-06-14T03:34:42;22.80;60.10
18085;DHT22;9169;44.492;11.372;2023-06-14T03:37:19;22.80;60.00
18085;DHT22;9169;44.492;11.372;2023-06-14T03:39:48;22.80;59.80
18085;DHT22;9169;44.492;11.372;2023-06-14T03:42:21;22.80;59.90
18085;DHT22;9169;44.492;11.372;2023-06-14T03:44:53;22.80;59.90
18085;DHT22;9169;44.492;11.372;2023-06-14T03:47:23;22.80;60.20
18085;DHT22;9169;44.492;11.372;2023-06-14T03:49:54;22.80;60.20
18085;DHT22;9169;44.492;11.372;2023-06-14T03:52:22;22.80;60.20
18085;DHT22;9169;44.492;11.372;2023-06-14T03:54:52;22.70;60.00
18085;DHT22;9169;44.492;11.372;2023-06-14T03:57:24;22.70;59.90
18085;DHT22;9169;44.492;11.372;2023-06-14T03:59:55;22.70;59.80
18085;DHT22;9169;44.492;11.372;2023-06-14T04:02:24;22.60;59.80
18085;DHT22;9169;44.492;11.372;2023-06-14T04:04:55;22.60;59.80
18085;DHT22;9169;44.492;11.372;2023-06-14T04:07:24;22.60;60.00
18085;DHT22;9169;44.492;11.372;2023-06-14T04:09:55;22.60;60.20
18085;DHT22;9169;44.492;11.372;2023-06-14T04:12:24;22.60;60.20
18085;DHT22;9169;44.492;11.372;2023-06-14T04:14:53;22.60;60.30
18085;DHT22;9169;44.492;11.372;2023-06-14T04:17:23;22.60;60.60
18085;DHT22;9169;44.492;11.372;2023-06-14T04:19:52;22.60;60.60
18085;DHT22;9169;44.492;11.372;2023-06-14T04:22:22;22.60;60.50
18085;DHT22;9169;44.492;11.372;2023-06-14T04:24:51;22.60;60.50
18085;DHT22;9169;44.492;11.372;2023-06-14T04:27:23;22.70;60.70
18085;DHT22;9169;44.492;11.372;2023-06-14T04:29:54;22.70;60.90
18085;DHT22;9169;44.492;11.372;2023-06-14T04:32:27;22.80;61.00
18085;DHT22;9169;44.492;11.372;2023-06-14T04:34:56;22.80;61.10
18085;DHT22;9169;44.492;11.372;2023-06-14T04:37:28;22.80;61.00
18085;DHT22;9169;44.492;11.372;2023-06-14T04:39:59;22.90;61.40
18085;DHT22;9169;44.492;11.372;2023-06-14T04:42:30;23.00;61.50
18085;DHT22;9169;44.492;11.372;2023-06-14T04:45:00;23.10;61.60
18085;DHT22;9169;44.492;11.372;2023-06-14T04:47:29;23.20;61.80
18085;DHT22;9169;44.492;11.372;2023-06-14T04:49:59;23.20;61.60
18085;DHT22;9169;44.492;11.372;2023-06-14T04:52:32;23.20;61.50
18085;DHT22;9169;44.492;11.372;2023-06-14T04:55:04;23.20;61.50
18085;DHT22;9169;44.492;11.372;2023-06-14T04:57:34;23.20;61.40
18085;DHT22;9169;44.492;11.372;2023-06-14T05:00:04;23.20;62.20
18085;DHT22;9169;44.492;11.372;2023-06-14T05:02:34;23.30;61.40
18085;DHT22;9169;44.492;11.372;2023-06-14T05:05:03;23.30;61.20
18085;DHT22;9169;44.492;11.372;2023-06-14T05:07:35;23.40;61.20
18085;DHT22;9169;44.492;11.372;2023-06-14T05:10:06;23.50;61.20
18085;DHT22;9169;44.492;11.372;2023-06-14T05:12:35;23.50;60.90
18085;DHT22;9169;44.492;11.372;2023-06-14T05:15:07;23.50;60.80
18085;DHT22;9169;44.492;11.372;2023-06-14T05:17:37;23.60;61.00
18085;DHT22;9169;44.492;11.372;2023-06-14T05:20:08;23.60;60.80
18085;DHT22;9169;44.492;11.372;2023-06-14T05:22:40;23.70;60.90
18085;DHT22;9169;44.492;11.372;2023-06-14T05:25:09;23.80;61.10
18085;DHT22;9169;44.492;11.372;2023-06-14T05:27:37;23.80;61.10
18085;DHT22;9169;44.492;11.372;2023-06-14T05:30:09;23.90;61.10
18085;DHT22;9169;44.492;11.372;2023-06-14T05:32:38;24.00;61.00
18085;DHT22;9169;44.492;11.372;2023-06-14T05:35:08;24.00;60.90
18085;DHT22;9169;44.492;11.372;2023-06-14T05:37:37;24.10;60.90
18085;DHT22;9169;44.492;11.372;2023-06-14T05:40:09;24.10;60.60
18085;DHT22;9169;44.492;11.372;2023-06-14T05:42:38;24.20;60.30
18085;DHT22;9169;44.492;11.372;2023-06-14T05:45:08;24.30;60.20
18085;DHT22;9169;44.492;11.372;2023-06-14T05:47:36;24.30;60.20
18085;DHT22;9169;44.492;11.372;2023-06-14T05:50:06;24.40;60.00
18085;DHT22;9169;44.492;11.372;2023-06-14T05:52:35;24.40;59.80
18085;DHT22;9169;44.492;11.372;2023-06-14T05:55:05;24.50;59.60
18085;DHT22;9169;44.492;11.372;2023-06-14T05:57:40;24.50;59.50
18085;DHT22;9169;44.492;11.372;2023-06-14T06:00:10;24.30;59.10
18085;DHT22;9169;44.492;11.372;2023-06-14T06:02:42;24.40;59.10
18085;DHT22;9169;44.492;11.372;2023-06-14T06:05:12;24.60;59.20
18085;DHT22;9169;44.492;11.372;2023-06-14T06:07:41;24.50;59.10
18085;DHT22;9169;44.492;11.372;2023-06-14T06:10:11;24.60;59.00
18085;DHT22;9169;44.492;11.372;2023-06-14T06:12:42;24.60;58.90
18085;DHT22;9169;44.492;11.372;2023-06-14T06:15:11;24.70;58.90
18085;DHT22;9169;44.492;11.372;2023-06-14T06:17:40;24.70;58.80
18085;DHT22;9169;44.492;11.372;2023-06-14T06:20:20;24.70;58.80
18085;DHT22;9169;44.492;11.372;2023-06-14T06:22:54;24.70;58.50
18085;DHT22;9169;44.492;11.372;2023-06-14T06:25:23;24.60;58.30
18085;DHT22;9169;44.492;11.372;2023-06-14T06:27:55;24.70;58.20
18085;DHT22;9169;44.492;11.372;2023-06-14T06:30:24;24.70;58.40
18085;DHT22;9169;44.492;11.372;2023-06-14T06:32:53;24.80;58.60
18085;DHT22;9169;44.492;11.372;2023-06-14T06:35:23;24.80;58.50
18085;DHT22;9169;44.492;11.372;2023-06-14T06:37:53;24.90;58.60
18085;DHT22;9169;44.492;11.372;2023-06-14T06:40:22;24.90;58.50
18085;DHT22;9169;44.492;11.372;2023-06-14T06:42:52;25.00;58.50
18085;DHT22;9169;44.492;11.372;2023-06-14T06:45:22;25.00;58.60
18085;DHT22;9169;44.492;11.372;2023-06-14T06:47:52;25.10;58.60
18085;DHT22;9169;44.492;11.372;2023-06-14T06:50:21;25.10;58.40
18085;DHT22;9169;44.492;11.372;2023-06-14T06:52:52;25.10;58.20
18085;DHT22;9169;44.492;11.372;2023-06-14T06:55:21;25.20;58.10
18085;DHT22;9169;44.492;11.372;2023-06-14T06:57:50;25.20;58.20
18085;DHT22;9169;44.492;11.372;2023-06-14T07:00:21;25.30;58.00
18085;DHT22;9169;44.492;11.372;2023-06-14T07:02:50;25.20;58.00
18085;DHT22;9169;44.492;11.372;2023-06-14T07:05:19;25.30;58.00
18085;DHT22;9169;44.492;11.372;2023-06-14T07:07:48;25.30;57.90
18085;DHT22;9169;44.492;11.372;2023-06-14T07:10:17;25.40;58.50
18085;DHT22;9169;44.492;11.372;2023-06-14T07:12:46;25.40;58.00
18085;DHT22;9169;44.492;11.372;2023-06-14T07:15:16;25.40;57.90
18085;DHT22;9169;44.492;11.372;2023-06-14T07:17:46;25.50;58.00
18085;DHT22;9169;44.492;11.372;2023-06-14T07:20:14;25.50;58.00
18085;DHT22;9169;44.492;11.372;2023-06-14T07:22:43;25.60;58.10
18085;DHT22;9169;44.492;11.372;2023-06-14T07:25:13;25.60;58.00
18085;DHT22;9169;44.492;11.372;2023-06-14T07:27:43;25.60;58.10
18085;DHT22;9169;44.492;11.372;2023-06-14T07:30:12;25.60;58.10
18085;DHT22;9169;44.492;11.372;2023-06-14T07:32:41;25.70;58.10
18085;DHT22;9169;44.492;11.372;2023-06-14T07:35:10;25.80;58.00
18085;DHT22;9169;44.492;11.372;2023-06-14T07:37:39;25.80;58.10
18085;DHT22;9169;44.492;11.372;2023-06-14T07:40:09;25.80;58.20
18085;DHT22;9169;44.492;11.372;2023-06-14T07:42:39;25.90;58.30
18085;DHT22;9169;44.492;11.372;2023-06-14T07:45:08;25.90;58.40
18085;DHT22;9169;44.492;11.372;2023-06-14T07:47:37;26.00;58.70
18085;DHT22;9169;44.492;11.372;2023-06-14T07:50:06;26.00;58.80
18085;DHT22;9169;44.492;11.372;2023-06-14T07:52:38;26.00;58.80
18085;DHT22;9169;44.492;11.372;2023-06-14T07:55:07;26.10;58.90
18085;DHT22;9169;44.492;11.372;2023-06-14T07:57:36;26.20;59.10
18085;DHT22;9169;44.492;11.372;2023-06-14T08:00:06;26.30;59.10
18085;DHT22;9169;44.492;11.372;2023-06-14T08:02:38;26.30;58.90
18085;DHT22;9169;44.492;11.372;2023-06-14T08:05:09;26.30;58.70
18085;DHT22;9169;44.492;11.372;2023-06-14T08:07:41;26.30;58.60
18085;DHT22;9169;44.492;11.372;2023-06-14T08:10:10;26.40;58.70
18085;DHT22;9169;44.492;11.372;2023-06-14T08:12:38;26.50;58.80
18085;DHT22;9169;44.492;11.372;2023-06-14T08:15:07;26.50;58.80
18085;DHT22;9169;44.492;11.372;2023-06-14T08:17:40;26.60;58.80
18085;DHT22;9169;44.492;11.372;2023-06-14T08:20:09;26.50;58.60
18085;DHT22;9169;44.492;11.372;2023-06-14T08:22:42;26.60;58.70
18085;DHT22;9169;44.492;11.372;2023-06-14T08:25:14;26.70;58.60
18085;DHT22;9169;44.492;11.372;2023-06-14T08:27:44;26.70;58.40
18085;DHT22;9169;44.492;11.372;2023-06-14T08:30:14;26.80;58.50
18085;DHT22;9169;44.492;11.372;2023-06-14T08:32:44;26.80;58.50
18085;DHT22;9169;44.492;11.372;2023-06-14T08:35:14;26.90;58.40
18085;DHT22;9169;44.492;11.372;2023-06-14T08:37:44;26.90;58.00
18085;DHT22;9169;44.492;11.372;2023-06-14T08:40:20;27.00;57.90
18085;DHT22;9169;44.492;11.372;2023-06-14T08:42:51;27.00;57.60
18085;DHT22;9169;44.492;11.372;2023-06-14T08:45:21;27.10;57.20
18085;DHT22;9169;44.492;11.372;2023-06-14T08:47:52;27.10;56.90
18085;DHT22;9169;44.492;11.372;2023-06-14T08:50:26;27.10;57.00
18085;DHT22;9169;44.492;11.372;2023-06-14T08:53:00;27.10;56.90
18085;DHT22;9169;44.492;11.372;2023-06-14T08:55:29;27.10;56.80
18085;DHT22;9169;44.492;11.372;2023-06-14T08:58:00;27.30;56.60
18085;DHT22;9169;44.492;11.372;2023-06-14T09:00:30;27.30;56.70
18085;DHT22;9169;44.492;11.372;2023-06-14T09:03:00;27.50;56.80
18085;DHT22;9169;44.492;11.372;2023-06-14T09:05:30;27.50;56.10
18085;DHT22;9169;44.492;11.372;2023-06-14T09:08:00;27.70;55.40
18085;DHT22;9169;44.492;11.372;2023-06-14T09:10:31;27.70;55.00
18085;DHT22;9169;44.492;11.372;2023-06-14T09:13:02;27.80;54.80
18085;DHT22;9169;44.492;11.372;2023-06-14T09:15:31;27.80;55.20
18085;DHT22;9169;44.492;11.372;2023-06-14T09:18:01;27.90;54.70
18085;DHT22;9169;44.492;11.372;2023-06-14T09:20:33;27.90;54.60
18085;DHT22;9169;44.492;11.372;2023-06-14T09:23:04;28.00;54.70
18085;DHT22;9169;44.492;11.372;2023-06-14T09:25:42;28.00;54.90
18085;DHT22;9169;44.492;11.372;2023-06-14T09:28:12;28.10;54.80
18085;DHT22;9169;44.492;11.372;2023-06-14T09:30:40;28.10;54.70
18085;DHT22;9169;44.492;11.372;2023-06-14T09:33:09;28.10;54.20
18085;DHT22;9169;44.492;11.372;2023-06-14T09:35:38;28.20;54.80
18085;DHT22;9169;44.492;11.372;2023-06-14T09:38:10;28.10;53.80
18085;DHT22;9169;44.492;11.372;2023-06-14T09:40:39;28.10;53.40
18085;DHT22;9169;44.492;11.372;2023-06-14T09:43:07;28.10;53.20
18085;DHT22;9169;44.492;11.372;2023-06-14T09:45:38;28.00;52.90
18085;DHT22;9169;44.492;11.372;2023-06-14T09:48:08;28.00;52.50
18085;DHT22;9169;44.492;11.372;2023-06-14T09:50:37;28.10;53.00
18085;DHT22;9169;44.492;11.372;2023-06-14T09:53:09;28.10;52.70
18085;DHT22;9169;44.492;11.372;2023-06-14T09:55:40;28.20;52.70
18085;DHT22;9169;44.492;11.372;2023-06-14T09:58:10;28.30;52.70
18085;DHT22;9169;44.492;11.372;2023-06-14T10:00:40;28.30;52.70
18085;DHT22;9169;44.492;11.372;2023-06-14T10:03:16;28.30;52.40
18085;DHT22;9169;44.492;11.372;2023-06-14T10:05:50;28.40;52.80
18085;DHT22;9169;44.492;11.372;2023-06-14T10:08:24;28.50;53.10
18085;DHT22;9169;44.492;11.372;2023-06-14T10:10:55;28.60;53.00
18085;DHT22;9169;44.492;11.372;2023-06-14T10:13:26;28.50;53.00
18085;DHT22;9169;44.492;11.372;2023-06-14T10:16:00;28.50;52.90
18085;DHT22;9169;44.492;11.372;2023-06-14T10:18:39;28.50;52.90
18085;DHT22;9169;44.492;11.372;2023-06-14T10:21:16;28.40;52.80
18085;DHT22;9169;44.492;11.372;2023-06-14T10:23:50;28.50;52.70
18085;DHT22;9169;44.492;11.372;2023-06-14T10:26:22;28.50;52.30
18085;DHT22;9169;44.492;11.372;2023-06-14T10:28:59;28.40;52.30
18085;DHT22;9169;44.492;11.372;2023-06-14T10:31:42;28.40;52.50
18085;DHT22;9169;44.492;11.372;2023-06-14T10:34:12;28.50;52.30
18085;DHT22;9169;44.492;11.372;2023-06-14T10:36:42;28.40;52.30
18085;DHT22;9169;44.492;11.372;2023-06-14T10:39:15;28.30;52.10
18085;DHT22;9169;44.492;11.372;2023-06-14T10:41:51;28.30;52.50
18085;DHT22;9169;44.492;11.372;2023-06-14T10:44:43;28.30;52.50
18085;DHT22;9169;44.492;11.372;2023-06-14T10:47:30;28.30;52.30
18085;DHT22;9169;44.492;11.372;2023-06-14T10:50:04;28.30;52.30
18085;DHT22;9169;44.492;11.372;2023-06-14T10:52:35;28.30;52.20
18085;DHT22;9169;44.492;11.372;2023-06-14T10:55:08;28.30;52.00
18085;DHT22;9169;44.492;11.372;2023-06-14T10:57:40;28.30;52.10
18085;DHT22;9169;44.492;11.372;2023-06-14T11:00:13;28.30;52.00
18085;DHT22;9169;44.492;11.372;2023-06-14T11:05:49;28.20;51.90
18085;DHT22;9169;44.492;11.372;2023-06-14T11:11:37;28.10;51.80
18085;DHT22;9169;44.492;11.372;2023-06-14T11:14:07;28.00;51.90
18085;DHT22;9169;44.492;11.372;2023-06-14T11:16:36;28.00;52.20
18085;DHT22;9169;44.492;11.372;2023-06-14T11:19:05;28.00;52.10
18085;DHT22;9169;44.492;11.372;2023-06-14T11:21:34;28.00;52.10
18085;DHT22;9169;44.492;11.372;2023-06-14T11:24:10;28.00;52.20
18085;DHT22;9169;44.492;11.372;2023-06-14T11:26:41;28.00;52.80
18085;DHT22;9169;44.492;11.372;2023-06-14T11:29:12;28.10;52.30
18085;DHT22;9169;44.492;11.372;2023-06-14T11:31:43;28.10;52.00
18085;DHT22;9169;44.492;11.372;2023-06-14T11:34:12;28.20;51.90
18085;DHT22;9169;44.492;11.372;2023-06-14T11:36:41;28.30;51.90
18085;DHT22;9169;44.492;11.372;2023-06-14T11:39:10;28.40;51.80
18085;DHT22;9169;44.492;11.372;2023-06-14T11:41:42;28.40;51.90
18085;DHT22;9169;44.492;11.372;2023-06-14T11:44:15;28.50;52.00
18085;DHT22;9169;44.492;11.372;2023-06-14T11:46:44;28.50;51.90
18085;DHT22;9169;44.492;11.372;2023-06-14T11:49:13;28.40;51.90
18085;DHT22;9169;44.492;11.372;2023-06-14T11:51:43;28.40;52.10
18085;DHT22;9169;44.492;11.372;2023-06-14T11:54:12;28.30;52.20
18085;DHT22;9169;44.492;11.372;2023-06-14T11:56:42;28.20;52.50
18085;DHT22;9169;44.492;11.372;2023-06-14T11:59:13;28.10;52.70
18085;DHT22;9169;44.492;11.372;2023-06-14T12:01:43;28.10;52.90
18085;DHT22;9169;44.492;11.372;2023-06-14T12:04:12;28.00;53.40
18085;DHT22;9169;44.492;11.372;2023-06-14T12:06:40;27.90;53.90
18085;DHT22;9169;44.492;11.372;2023-06-14T12:09:10;27.70;54.30
18085;DHT22;9169;44.492;11.372;2023-06-14T12:11:48;27.60;54.70
18085;DHT22;9169;44.492;11.372;2023-06-14T12:14:17;27.50;55.00
18085;DHT22;9169;44.492;11.372;2023-06-14T12:16:46;27.40;55.20
18085;DHT22;9169;44.492;11.372;2023-06-14T12:19:16;27.30;55.40
18085;DHT22;9169;44.492;11.372;2023-06-14T12:21:46;27.20;55.60
18085;DHT22;9169;44.492;11.372;2023-06-14T12:24:16;27.10;55.80
18085;DHT22;9169;44.492;11.372;2023-06-14T12:26:46;27.00;55.80
18085;DHT22;9169;44.492;11.372;2023-06-14T12:29:15;26.90;56.20
18085;DHT22;9169;44.492;11.372;2023-06-14T12:31:44;26.80;56.60
18085;DHT22;9169;44.492;11.372;2023-06-14T12:34:12;26.80;56.80
18085;DHT22;9169;44.492;11.372;2023-06-14T12:36:41;26.80;57.20
18085;DHT22;9169;44.492;11.372;2023-06-14T12:39:12;26.70;57.30
18085;DHT22;9169;44.492;11.372;2023-06-14T12:41:41;26.70;57.50
18085;DHT22;9169;44.492;11.372;2023-06-14T12:44:12;26.70;57.60
18085;DHT22;9169;44.492;11.372;2023-06-14T12:46:41;26.60;57.70
18085;DHT22;9169;44.492;11.372;2023-06-14T12:49:11;26.50;57.60
18085;DHT22;9169;44.492;11.372;2023-06-14T12:51:40;26.50;57.70
18085;DHT22;9169;44.492;11.372;2023-06-14T12:54:09;26.50;57.90
18085;DHT22;9169;44.492;11.372;2023-06-14T12:56:42;26.50;58.10
18085;DHT22;9169;44.492;11.372;2023-06-14T12:59:16;26.50;58.10
18085;DHT22;9169;44.492;11.372;2023-06-14T13:01:45;26.50;58.00
18085;DHT22;9169;44.492;11.372;2023-06-14T13:04:16;26.60;58.10
18085;DHT22;9169;44.492;11.372;2023-06-14T13:06:45;26.70;58.30
18085;DHT22;9169;44.492;11.372;2023-06-14T13:09:14;26.70;57.90
18085;DHT22;9169;44.492;11.372;2023-06-14T13:11:43;26.70;57.60
18085;DHT22;9169;44.492;11.372;2023-06-14T13:14:15;26.70;57.70
18085;DHT22;9169;44.492;11.372;2023-06-14T13:16:51;26.70;57.70
18085;DHT22;9169;44.492;11.372;2023-06-14T13:19:20;26.80;57.50
18085;DHT22;9169;44.492;11.372;2023-06-14T13:21:49;26.90;57.30
18085;DHT22;9169;44.492;11.372;2023-06-14T13:24:17;26.90;57.10
18085;DHT22;9169;44.492;11.372;2023-06-14T13:26:46;27.10;57.00
18085;DHT22;9169;44.492;11.372;2023-06-14T13:29:16;27.20;56.90
18085;DHT22;9169;44.492;11.372;2023-06-14T13:31:44;27.30;56.70
18085;DHT22;9169;44.492;11.372;2023-06-14T13:34:13;27.50;56.60
18085;DHT22;9169;44.492;11.372;2023-06-14T13:36:42;27.90;56.80
18085;DHT22;9169;44.492;11.372;2023-06-14T13:39:11;28.40;57.00
18085;DHT22;9169;44.492;11.372;2023-06-14T13:41:39;28.90;56.20
18085;DHT22;9169;44.492;11.372;2023-06-14T13:44:08;29.40;55.80
18085;DHT22;9169;44.492;11.372;2023-06-14T13:46:40;30.10;54.80
18085;DHT22;9169;44.492;11.372;2023-06-14T13:49:10;30.80;54.00
18085;DHT22;9169;44.492;11.372;2023-06-14T13:51:42;31.50;52.70
18085;DHT22;9169;44.492;11.372;2023-06-14T13:54:13;32.10;52.00
18085;DHT22;9169;44.492;11.372;2023-06-14T13:56:42;32.80;51.50
18085;DHT22;9169;44.492;11.372;2023-06-14T13:59:11;33.40;50.80
18085;DHT22;9169;44.492;11.372;2023-06-14T14:01:41;33.90;49.00
18085;DHT22;9169;44.492;11.372;2023-06-14T14:04:09;34.40;48.20
18085;DHT22;9169;44.492;11.372;2023-06-14T14:06:39;34.80;47.70
18085;DHT22;9169;44.492;11.372;2023-06-14T14:09:08;35.10;47.20
18085;DHT22;9169;44.492;11.372;2023-06-14T14:11:36;35.30;46.10
18085;DHT22;9169;44.492;11.372;2023-06-14T14:14:06;35.40;45.80
18085;DHT22;9169;44.492;11.372;2023-06-14T14:16:35;35.60;45.30
18085;DHT22;9169;44.492;11.372;2023-06-14T14:19:06;35.80;44.70
18085;DHT22;9169;44.492;11.372;2023-06-14T14:21:35;36.10;44.20
18085;DHT22;9169;44.492;11.372;2023-06-14T14:24:05;36.50;44.70
18085;DHT22;9169;44.492;11.372;2023-06-14T14:26:34;36.70;43.00
18085;DHT22;9169;44.492;11.372;2023-06-14T14:29:02;36.80;42.20
18085;DHT22;9169;44.492;11.372;2023-06-14T14:31:31;36.80;41.80
18085;DHT22;9169;44.492;11.372;2023-06-14T14:33:59;36.90;41.60
18085;DHT22;9169;44.492;11.372;2023-06-14T14:36:29;36.80;41.60
18085;DHT22;9169;44.492;11.372;2023-06-14T14:38:58;36.80;41.40
18085;DHT22;9169;44.492;11.372;2023-06-14T14:41:27;36.80;41.80
18085;DHT22;9169;44.492;11.372;2023-06-14T14:43:56;36.80;40.90
18085;DHT22;9169;44.492;11.372;2023-06-14T14:46:27;36.60;40.90
18085;DHT22;9169;44.492;11.372;2023-06-14T14:48:56;36.30;40.50
18085;DHT22;9169;44.492;11.372;2023-06-14T14:51:24;36.20;40.90
18085;DHT22;9169;44.492;11.372;2023-06-14T14:53:54;35.90;41.30
18085;DHT22;9169;44.492;11.372;2023-06-14T14:56:23;35.60;41.60
18085;DHT22;9169;44.492;11.372;2023-06-14T14:58:52;35.40;42.00
18085;DHT22;9169;44.492;11.372;2023-06-14T15:01:21;35.10;41.70
18085;DHT22;9169;44.492;11.372;2023-06-14T15:03:50;34.80;42.00
18085;DHT22;9169;44.492;11.372;2023-06-14T15:06:24;34.40;42.10
18085;DHT22;9169;44.492;11.372;2023-06-14T15:08:54;34.00;42.30
18085;DHT22;9169;44.492;11.372;2023-06-14T15:11:23;33.70;42.40
18085;DHT22;9169;44.492;11.372;2023-06-14T15:13:51;33.40;42.40
18085;DHT22;9169;44.492;11.372;2023-06-14T15:16:20;33.20;43.20
18085;DHT22;9169;44.492;11.372;2023-06-14T15:18:48;32.90;42.80
18085;DHT22;9169;44.492;11.372;2023-06-14T15:21:17;32.60;42.90
18085;DHT22;9169;44.492;11.372;2023-06-14T15:23:47;32.50;43.30
18085;DHT22;9169;44.492;11.372;2023-06-14T15:26:17;32.30;43.60
18085;DHT22;9169;44.492;11.372;2023-06-14T15:28:46;32.30;43.70
18085;DHT22;9169;44.492;11.372;2023-06-14T15:31:17;32.20;43.90
18085;DHT22;9169;44.492;11.372;2023-06-14T15:33:46;32.10;43.80
18085;DHT22;9169;44.492;11.372;2023-06-14T15:36:15;32.00;43.60
18085;DHT22;9169;44.492;11.372;2023-06-14T15:38:43;31.80;42.60
18085;DHT22;9169;44.492;11.372;2023-06-14T15:41:12;31.80;42.30
18085;DHT22;9169;44.492;11.372;2023-06-14T15:43:42;31.60;41.80
18085;DHT22;9169;44.492;11.372;2023-06-14T15:46:11;31.40;42.00
18085;DHT22;9169;44.492;11.372;2023-06-14T15:48:40;31.30;42.20
18085;DHT22;9169;44.492;11.372;2023-06-14T15:51:09;31.20;42.40
18085;DHT22;9169;44.492;11.372;2023-06-14T15:53:39;31.10;42.70
18085;DHT22;9169;44.492;11.372;2023-06-14T15:56:07;31.00;43.10